sensor_id;sensor_type;location;lat;lon;timestamp;temperature;humidity
30280;DHT22;17097;50.916;5.344;2023-03-01T00:02:02;3.00;99.90
30280;DHT22;17097;50.916;5.344;2023-03-01T00:04:28;2.90;99.90
30280;DHT22;17097;50.916;5.344;2023-03-01T00:06:54;2.90;99.90
30280;DHT22;17097;50.916;5.344;2023-03-01T00:09:20;2.90;99.90
30280;DHT22;17097;50.916;5.344;2023-03-01T00:11:49;2.90;99.90
30280;DHT22;17097;50.916;5.344;2023-03-01T00:14:15;2.90;99.90
30280;DHT22;17097;50.916;5.344;2023-03-01T00:16:43;2.80;99.90
30280;DHT22;17097;50.916;5.344;2023-03-01T00:19:13;2.80;99.90
30280;DHT22;17097;50.916;5.344;2023-03-01T00:21:39;2.80;99.90
30280;DHT22;17097;50.916;5.344;2023-03-01T00:24:05;2.80;99.90
30280;DHT22;17097;50.916;5.344;2023-03-01T00:26:31;2.70;99.90
30280;DHT22;17097;50.916;5.344;2023-03-01T00:28:58;2.80;99.90
30280;DHT22;17097;50.916;5.344;2023-03-01T00:31:27;2.60;99.90
30280;DHT22;17097;50.916;5.344;2023-03-01T00:33:56;2.70;99.90
30280;DHT22;17097;50.916;5.344;2023-03-01T00:36:23;2.60;99.90
30280;DHT22;17097;50.916;5.344;2023-03-01T00:38:49;2.60;99.90
30280;DHT22;17097;50.916;5.344;2023-03-01T00:41:18;2.50;99.90
30280;DHT22;17097;50.916;5.344;2023-03-01T00:43:45;2.60;99.90
30280;DHT22;17097;50.916;5.344;2023-03-01T00:46:19;2.60;99.90
30280;DHT22;17097;50.916;5.344;2023-03-01T00:48:45;2.60;99.90
30280;DHT22;17097;50.916;5.344;2023-03-01T00:51:24;2.60;99.90
30280;DHT22;17097;50.916;5.344;2023-03-01T00:53:52;2.60;99.90
30280;DHT22;17097;50.916;5.344;2023-03-01T00:56:19;2.60;99.90
30280;DHT22;17097;50.916;5.344;2023-03-01T00:58:45;2.50;99.90
30280;DHT22;17097;50.916;5.344;2023-03-01T01:01:15;2.50;99.90
30280;DHT22;17097;50.916;5.344;2023-03-01T01:03:56;2.50;99.90
30280;DHT22;17097;50.916;5.344;2023-03-01T01:06:25;2.50;99.90
30280;DHT22;17097;50.916;5.344;2023-03-01T01:08:53;2.40;99.90
30280;DHT22;17097;50.916;5.344;2023-03-01T01:11:20;2.40;99.90
30280;DHT22;17097;50.916;5.344;2023-03-01T01:13:47;2.40;99.90
30280;DHT22;17097;50.916;5.344;2023-03-01T01:16:13;2.40;99.90
30280;DHT22;17097;50.916;5.344;2023-03-01T01:18:39;2.40;99.90
30280;DHT22;17097;50.916;5.344;2023-03-01T01:21:14;2.30;99.90
30280;DHT22;17097;50.916;5.344;2023-03-01T01:23:41;2.30;99.90
30280;DHT22;17097;50.916;5.344;2023-03-01T01:26:12;2.30;99.90
30280;DHT22;17097;50.916;5.344;2023-03-01T01:28:39;2.20;99.90
30280;DHT22;17097;50.916;5.344;2023-03-01T01:31:08;2.20;99.90
30280;DHT22;17097;50.916;5.344;2023-03-01T01:33:34;2.30;99.90
30280;DHT22;17097;50.916;5.344;2023-03-01T01:36:00;2.30;99.90
30280;DHT22;17097;50.916;5.344;2023-03-01T01:38:26;2.20;99.90
30280;DHT22;17097;50.916;5.344;2023-03-01T01:40:52;2.20;99.90
30280;DHT22;17097;50.916;5.344;2023-03-01T01:43:27;2.20;99.90
30280;DHT22;17097;50.916;5.344;2023-03-01T01:45:58;2.30;99.90
30280;DHT22;17097;50.916;5.344;2023-03-01T01:48:28;2.30;99.90
30280;DHT22;17097;50.916;5.344;2023-03-01T01:51:08;2.20;99.90
30280;DHT22;17097;50.916;5.344;2023-03-01T01:53:38;2.20;99.90
30280;DHT22;17097;50.916;5.344;2023-03-01T01:56:07;2.20;99.90
30280;DHT22;17097;50.916;5.344;2023-03-01T01:58:34;2.20;99.90
30280;DHT22;17097;50.916;5.344;2023-03-01T02:01:00;2.10;99.90
30280;DHT22;17097;50.916;5.344;2023-03-01T02:03:31;2.10;99.90
30280;DHT22;17097;50.916;5.344;2023-03-01T02:08:29;2.10;99.90
30280;DHT22;17097;50.916;5.344;2023-03-01T02:10:57;2.00;99.90
30280;DHT22;17097;50.916;5.344;2023-03-01T02:13:25;2.00;99.90
30280;DHT22;17097;50.916;5.344;2023-03-01T02:15:51;2.10;99.90
30280;DHT22;17097;50.916;5.344;2023-03-01T02:18:19;2.00;99.90
30280;DHT22;17097;50.916;5.344;2023-03-01T02:23:49;2.00;99.90
30280;DHT22;17097;50.916;5.344;2023-03-01T02:26:36;2.00;99.90
30280;DHT22;17097;50.916;5.344;2023-03-01T02:29:05;2.00;99.90
30280;DHT22;17097;50.916;5.344;2023-03-01T02:31:32;2.00;99.90
30280;DHT22;17097;50.916;5.344;2023-03-01T02:34:11;1.90;99.90
30280;DHT22;17097;50.916;5.344;2023-03-01T02:36:46;1.90;99.90
30280;DHT22;17097;50.916;5.344;2023-03-01T02:39:37;1.80;99.90
30280;DHT22;17097;50.916;5.344;2023-03-01T02:42:12;1.90;99.90
30280;DHT22;17097;50.916;5.344;2023-03-01T02:44:38;1.80;99.90
30280;DHT22;17097;50.916;5.344;2023-03-01T02:47:07;1.80;99.90
30280;DHT22;17097;50.916;5.344;2023-03-01T02:49:35;1.90;99.90
30280;DHT22;17097;50.916;5.344;2023-03-01T02:57:18;1.70;99.90
30280;DHT22;17097;50.916;5.344;2023-03-01T02:59:44;1.70;99.90
30280;DHT22;17097;50.916;5.344;2023-03-01T03:02:22;1.70;99.90
30280;DHT22;17097;50.916;5.344;2023-03-01T03:07:34;1.70;99.90
30280;DHT22;17097;50.916;5.344;2023-03-01T03:10:01;1.70;99.90
30280;DHT22;17097;50.916;5.344;2023-03-01T03:12:27;1.60;99.90
30280;DHT22;17097;50.916;5.344;2023-03-01T03:14:53;1.60;99.90
30280;DHT22;17097;50.916;5.344;2023-03-01T03:17:19;1.60;99.90
30280;DHT22;17097;50.916;5.344;2023-03-01T03:19:45;1.60;99.90
30280;DHT22;17097;50.916;5.344;2023-03-01T03:22:12;1.60;99.90
30280;DHT22;17097;50.916;5.344;2023-03-01T03:24:40;1.60;99.90
30280;DHT22;17097;50.916;5.344;2023-03-01T03:27:06;1.60;99.90
30280;DHT22;17097;50.916;5.344;2023-03-01T03:29:33;1.60;99.90
30280;DHT22;17097;50.916;5.344;2023-03-01T03:31:59;1.60;99.90
30280;DHT22;17097;50.916;5.344;2023-03-01T03:34:25;1.60;99.90
30280;DHT22;17097;50.916;5.344;2023-03-01T03:36:55;1.50;99.90
30280;DHT22;17097;50.916;5.344;2023-03-01T03:39:25;1.50;99.90
30280;DHT22;17097;50.916;5.344;2023-03-01T03:41:52;1.50;99.90
30280;DHT22;17097;50.916;5.344;2023-03-01T03:44:19;1.50;99.90
30280;DHT22;17097;50.916;5.344;2023-03-01T03:46:47;1.50;99.90
30280;DHT22;17097;50.916;5.344;2023-03-01T03:49:13;1.50;99.90
30280;DHT22;17097;50.916;5.344;2023-03-01T03:51:41;1.40;99.90
30280;DHT22;17097;50.916;5.344;2023-03-01T03:54:07;1.40;99.90
30280;DHT22;17097;50.916;5.344;2023-03-01T03:56:33;1.40;99.90
30280;DHT22;17097;50.916;5.344;2023-03-01T03:58:59;1.40;99.90
30280;DHT22;17097;50.916;5.344;2023-03-01T04:01:25;1.40;99.90
30280;DHT22;17097;50.916;5.344;2023-03-01T04:03:53;1.40;99.90
30280;DHT22;17097;50.916;5.344;2023-03-01T04:06:22;1.40;99.90
30280;DHT22;17097;50.916;5.344;2023-03-01T04:08:48;1.30;99.90
30280;DHT22;17097;50.916;5.344;2023-03-01T04:11:16;1.30;99.90
30280;DHT22;17097;50.916;5.344;2023-03-01T04:13:57;1.40;99.90
30280;DHT22;17097;50.916;5.344;2023-03-01T04:16:25;1.40;99.90
30280;DHT22;17097;50.916;5.344;2023-03-01T04:18:54;1.40;99.90
30280;DHT22;17097;50.916;5.344;2023-03-01T04:21:20;1.30;99.90
30280;DHT22;17097;50.916;5.344;2023-03-01T04:23:49;1.30;99.90
30280;DHT22;17097;50.916;5.344;2023-03-01T04:26:18;1.30;99.90
30280;DHT22;17097;50.916;5.344;2023-03-01T04:28:47;1.30;99.90
30280;DHT22;17097;50.916;5.344;2023-03-01T04:31:16;1.30;99.90
30280;DHT22;17097;50.916;5.344;2023-03-01T04:33:47;1.30;99.90
30280;DHT22;17097;50.916;5.344;2023-03-01T04:36:14;1.30;99.90
30280;DHT22;17097;50.916;5.344;2023-03-01T04:38:41;1.30;99.90
30280;DHT22;17097;50.916;5.344;2023-03-01T04:41:10;1.20;99.90
30280;DHT22;17097;50.916;5.344;2023-03-01T04:43:37;1.20;99.90
30280;DHT22;17097;50.916;5.344;2023-03-01T04:46:05;1.20;99.90
30280;DHT22;17097;50.916;5.344;2023-03-01T04:48:35;1.20;99.90
30280;DHT22;17097;50.916;5.344;2023-03-01T04:51:02;1.20;99.90
30280;DHT22;17097;50.916;5.344;2023-03-01T04:53:28;1.10;99.90
30280;DHT22;17097;50.916;5.344;2023-03-01T04:55:55;1.20;99.90
30280;DHT22;17097;50.916;5.344;2023-03-01T04:58:23;1.10;99.90
30280;DHT22;17097;50.916;5.344;2023-03-01T05:00:49;1.10;99.90
30280;DHT22;17097;50.916;5.344;2023-03-01T05:03:15;1.10;99.90
30280;DHT22;17097;50.916;5.344;2023-03-01T05:05:44;1.10;99.90
30280;DHT22;17097;50.916;5.344;2023-03-01T05:08:10;1.00;99.90
30280;DHT22;17097;50.916;5.344;2023-03-01T05:10:47;1.00;99.90
30280;DHT22;17097;50.916;5.344;2023-03-01T05:13:14;0.90;99.90
30280;DHT22;17097;50.916;5.344;2023-03-01T05:15:47;1.00;99.90
30280;DHT22;17097;50.916;5.344;2023-03-01T05:18:13;1.00;99.90
30280;DHT22;17097;50.916;5.344;2023-03-01T05:20:39;0.90;99.90
30280;DHT22;17097;50.916;5.344;2023-03-01T05:23:05;0.90;99.90
30280;DHT22;17097;50.916;5.344;2023-03-01T05:25:33;0.90;99.90
30280;DHT22;17097;50.916;5.344;2023-03-01T05:28:01;0.90;99.90
30280;DHT22;17097;50.916;5.344;2023-03-01T05:30:30;0.90;99.90
30280;DHT22;17097;50.916;5.344;2023-03-01T05:32:56;0.90;99.90
30280;DHT22;17097;50.916;5.344;2023-03-01T05:35:22;0.90;99.90
30280;DHT22;17097;50.916;5.344;2023-03-01T05:37:49;0.90;99.90
30280;DHT22;17097;50.916;5.344;2023-03-01T05:40:20;0.90;99.90
30280;DHT22;17097;50.916;5.344;2023-03-01T05:42:56;1.00;99.90
30280;DHT22;17097;50.916;5.344;2023-03-01T05:45:23;0.90;99.90
30280;DHT22;17097;50.916;5.344;2023-03-01T05:47:50;1.10;99.90
30280;DHT22;17097;50.916;5.344;2023-03-01T05:50:20;1.00;99.90
30280;DHT22;17097;50.916;5.344;2023-03-01T05:52:50;0.90;99.90
30280;DHT22;17097;50.916;5.344;2023-03-01T05:55:22;0.80;99.90
30280;DHT22;17097;50.916;5.344;2023-03-01T05:57:49;0.90;99.90
30280;DHT22;17097;50.916;5.344;2023-03-01T06:00:19;0.80;99.90
30280;DHT22;17097;50.916;5.344;2023-03-01T06:02:47;0.80;99.90
30280;DHT22;17097;50.916;5.344;2023-03-01T06:05:14;0.90;99.90
30280;DHT22;17097;50.916;5.344;2023-03-01T06:07:41;0.80;99.90
30280;DHT22;17097;50.916;5.344;2023-03-01T06:10:10;1.70;99.90
30280;DHT22;17097;50.916;5.344;2023-03-01T06:12:37;1.70;99.90
30280;DHT22;17097;50.916;5.344;2023-03-01T06:15:05;1.60;99.90
30280;DHT22;17097;50.916;5.344;2023-03-01T06:17:34;1.50;99.90
30280;DHT22;17097;50.916;5.344;2023-03-01T06:20:12;1.40;99.90
30280;DHT22;17097;50.916;5.344;2023-03-01T06:22:40;1.40;99.90
30280;DHT22;17097;50.916;5.344;2023-03-01T06:25:07;1.20;99.90
30280;DHT22;17097;50.916;5.344;2023-03-01T06:27:33;1.10;99.90
30280;DHT22;17097;50.916;5.344;2023-03-01T06:29:58;1.10;99.90
30280;DHT22;17097;50.916;5.344;2023-03-01T06:32:27;1.10;99.90
30280;DHT22;17097;50.916;5.344;2023-03-01T06:34:52;1.10;99.90
30280;DHT22;17097;50.916;5.344;2023-03-01T06:37:18;1.00;99.90
30280;DHT22;17097;50.916;5.344;2023-03-01T06:39:44;1.00;99.90
30280;DHT22;17097;50.916;5.344;2023-03-01T06:42:10;0.90;99.90
30280;DHT22;17097;50.916;5.344;2023-03-01T06:44:38;0.90;99.90
30280;DHT22;17097;50.916;5.344;2023-03-01T06:47:04;1.00;99.90
30280;DHT22;17097;50.916;5.344;2023-03-01T06:49:29;1.10;99.90
30280;DHT22;17097;50.916;5.344;2023-03-01T06:51:56;1.20;99.90
30280;DHT22;17097;50.916;5.344;2023-03-01T06:54:27;1.50;99.90
30280;DHT22;17097;50.916;5.344;2023-03-01T06:56:53;1.90;99.90
30280;DHT22;17097;50.916;5.344;2023-03-01T06:59:18;2.20;99.90
30280;DHT22;17097;50.916;5.344;2023-03-01T07:01:44;2.40;99.90
30280;DHT22;17097;50.916;5.344;2023-03-01T07:04:11;2.50;99.90
30280;DHT22;17097;50.916;5.344;2023-03-01T07:06:37;2.60;99.90
30280;DHT22;17097;50.916;5.344;2023-03-01T07:09:03;2.90;99.90
30280;DHT22;17097;50.916;5.344;2023-03-01T07:11:31;3.50;99.90
30280;DHT22;17097;50.916;5.344;2023-03-01T07:13:57;4.70;99.90
30280;DHT22;17097;50.916;5.344;2023-03-01T07:16:25;5.90;99.90
30280;DHT22;17097;50.916;5.344;2023-03-01T07:18:54;6.90;99.90
30280;DHT22;17097;50.916;5.344;2023-03-01T07:21:20;7.80;99.90
30280;DHT22;17097;50.916;5.344;2023-03-01T07:23:47;8.60;99.90
30280;DHT22;17097;50.916;5.344;2023-03-01T07:26:14;9.30;98.80
30280;DHT22;17097;50.916;5.344;2023-03-01T07:28:40;9.70;96.30
30280;DHT22;17097;50.916;5.344;2023-03-01T07:31:06;10.20;94.60
30280;DHT22;17097;50.916;5.344;2023-03-01T07:33:32;10.80;91.80
30280;DHT22;17097;50.916;5.344;2023-03-01T07:35:59;11.40;90.30
30280;DHT22;17097;50.916;5.344;2023-03-01T07:38:26;12.00;87.50
30280;DHT22;17097;50.916;5.344;2023-03-01T07:40:52;12.30;81.20
30280;DHT22;17097;50.916;5.344;2023-03-01T07:43:21;12.50;80.50
30280;DHT22;17097;50.916;5.344;2023-03-01T07:45:47;12.70;76.60
30280;DHT22;17097;50.916;5.344;2023-03-01T07:48:13;12.60;78.20
30280;DHT22;17097;50.916;5.344;2023-03-01T07:50:38;12.50;77.20
30280;DHT22;17097;50.916;5.344;2023-03-01T07:53:04;12.40;77.50
30280;DHT22;17097;50.916;5.344;2023-03-01T07:55:33;12.70;76.70
30280;DHT22;17097;50.916;5.344;2023-03-01T07:57:59;12.90;73.20
30280;DHT22;17097;50.916;5.344;2023-03-01T08:00:25;13.50;71.50
30280;DHT22;17097;50.916;5.344;2023-03-01T08:02:53;13.90;70.70
30280;DHT22;17097;50.916;5.344;2023-03-01T08:05:18;14.20;69.40
30280;DHT22;17097;50.916;5.344;2023-03-01T08:07:44;14.40;69.40
30280;DHT22;17097;50.916;5.344;2023-03-01T08:10:11;14.80;67.10
30280;DHT22;17097;50.916;5.344;2023-03-01T08:12:36;15.30;64.30
30280;DHT22;17097;50.916;5.344;2023-03-01T08:15:05;15.50;62.50
30280;DHT22;17097;50.916;5.344;2023-03-01T08:17:33;15.70;61.80
30280;DHT22;17097;50.916;5.344;2023-03-01T08:19:59;15.60;61.20
30280;DHT22;17097;50.916;5.344;2023-03-01T08:22:25;15.60;59.70
30280;DHT22;17097;50.916;5.344;2023-03-01T08:24:51;15.40;60.50
30280;DHT22;17097;50.916;5.344;2023-03-01T08:27:19;15.30;61.00
30280;DHT22;17097;50.916;5.344;2023-03-01T08:29:45;15.50;60.80
30280;DHT22;17097;50.916;5.344;2023-03-01T08:32:11;15.30;60.00
30280;DHT22;17097;50.916;5.344;2023-03-01T08:34:36;15.30;59.00
30280;DHT22;17097;50.916;5.344;2023-03-01T08:37:02;15.10;59.70
30280;DHT22;17097;50.916;5.344;2023-03-01T08:39:28;15.40;59.40
30280;DHT22;17097;50.916;5.344;2023-03-01T08:41:55;15.50;58.70
30280;DHT22;17097;50.916;5.344;2023-03-01T08:44:21;16.30;57.60
30280;DHT22;17097;50.916;5.344;2023-03-01T08:46:47;16.70;57.10
30280;DHT22;17097;50.916;5.344;2023-03-01T08:49:18;16.70;55.90
30280;DHT22;17097;50.916;5.344;2023-03-01T08:51:45;16.70;57.40
30280;DHT22;17097;50.916;5.344;2023-03-01T08:54:17;17.00;56.70
30280;DHT22;17097;50.916;5.344;2023-03-01T08:56:43;17.30;54.60
30280;DHT22;17097;50.916;5.344;2023-03-01T08:59:14;17.80;52.70
30280;DHT22;17097;50.916;5.344;2023-03-01T09:01:40;17.60;53.50
30280;DHT22;17097;50.916;5.344;2023-03-01T09:04:09;17.50;54.50
30280;DHT22;17097;50.916;5.344;2023-03-01T09:06:35;17.00;52.50
30280;DHT22;17097;50.916;5.344;2023-03-01T09:09:05;16.90;53.20
30280;DHT22;17097;50.916;5.344;2023-03-01T09:11:31;16.50;54.10
30280;DHT22;17097;50.916;5.344;2023-03-01T09:13:58;16.50;55.20
30280;DHT22;17097;50.916;5.344;2023-03-01T09:16:26;16.40;54.20
30280;DHT22;17097;50.916;5.344;2023-03-01T09:18:56;16.30;55.80
30280;DHT22;17097;50.916;5.344;2023-03-01T09:21:23;16.60;53.80
30280;DHT22;17097;50.916;5.344;2023-03-01T09:23:50;16.80;53.20
30280;DHT22;17097;50.916;5.344;2023-03-01T09:26:21;17.20;52.60
30280;DHT22;17097;50.916;5.344;2023-03-01T09:28:50;17.60;51.90
30280;DHT22;17097;50.916;5.344;2023-03-01T09:31:17;18.00;50.60
30280;DHT22;17097;50.916;5.344;2023-03-01T09:33:49;18.30;51.40
30280;DHT22;17097;50.916;5.344;2023-03-01T09:36:17;18.40;50.20
30280;DHT22;17097;50.916;5.344;2023-03-01T09:38:43;18.10;49.40
30280;DHT22;17097;50.916;5.344;2023-03-01T09:41:24;17.70;50.40
30280;DHT22;17097;50.916;5.344;2023-03-01T09:43:55;17.40;51.30
30280;DHT22;17097;50.916;5.344;2023-03-01T09:46:25;17.50;51.30
30280;DHT22;17097;50.916;5.344;2023-03-01T09:48:56;17.80;51.30
30280;DHT22;17097;50.916;5.344;2023-03-01T09:51:34;17.70;50.40
30280;DHT22;17097;50.916;5.344;2023-03-01T09:54:02;17.30;51.10
30280;DHT22;17097;50.916;5.344;2023-03-01T09:56:37;16.90;51.30
30280;DHT22;17097;50.916;5.344;2023-03-01T09:59:30;16.90;52.00
30280;DHT22;17097;50.916;5.344;2023-03-01T10:02:26;16.90;51.90
30280;DHT22;17097;50.916;5.344;2023-03-01T10:05:04;17.50;52.60
30280;DHT22;17097;50.916;5.344;2023-03-01T10:10:47;18.00;50.30
30280;DHT22;17097;50.916;5.344;2023-03-01T10:13:21;18.60;49.50
30280;DHT22;17097;50.916;5.344;2023-03-01T10:15:55;19.00;48.50
30280;DHT22;17097;50.916;5.344;2023-03-01T10:18:26;19.70;49.30
30280;DHT22;17097;50.916;5.344;2023-03-01T10:21:00;20.20;47.10
30280;DHT22;17097;50.916;5.344;2023-03-01T10:23:28;20.90;46.80
30280;DHT22;17097;50.916;5.344;2023-03-01T10:29:01;21.30;44.00
30280;DHT22;17097;50.916;5.344;2023-03-01T10:31:33;21.30;42.60
30280;DHT22;17097;50.916;5.344;2023-03-01T10:34:07;21.40;42.90
30280;DHT22;17097;50.916;5.344;2023-03-01T10:36:34;21.20;42.80
30280;DHT22;17097;50.916;5.344;2023-03-01T10:39:16;21.30;43.50
30280;DHT22;17097;50.916;5.344;2023-03-01T10:44:47;21.60;41.20
30280;DHT22;17097;50.916;5.344;2023-03-01T10:47:21;21.40;41.10
30280;DHT22;17097;50.916;5.344;2023-03-01T10:50:03;20.70;42.30
30280;DHT22;17097;50.916;5.344;2023-03-01T10:52:37;20.80;43.20
30280;DHT22;17097;50.916;5.344;2023-03-01T10:55:33;20.60;42.80
30280;DHT22;17097;50.916;5.344;2023-03-01T10:58:27;20.70;43.60
30280;DHT22;17097;50.916;5.344;2023-03-01T11:06:34;20.30;44.30
30280;DHT22;17097;50.916;5.344;2023-03-01T11:09:15;19.90;42.90
30280;DHT22;17097;50.916;5.344;2023-03-01T11:11:44;19.80;43.80
30280;DHT22;17097;50.916;5.344;2023-03-01T11:14:20;19.30;43.80
30280;DHT22;17097;50.916;5.344;2023-03-01T11:16:48;19.00;44.00
30280;DHT22;17097;50.916;5.344;2023-03-01T11:19:16;18.80;45.20
30280;DHT22;17097;50.916;5.344;2023-03-01T11:21:56;18.60;45.60
30280;DHT22;17097;50.916;5.344;2023-03-01T11:24:31;18.80;45.30
30280;DHT22;17097;50.916;5.344;2023-03-01T11:27:08;18.70;45.40
30280;DHT22;17097;50.916;5.344;2023-03-01T11:29:39;18.70;45.00
30280;DHT22;17097;50.916;5.344;2023-03-01T11:32:09;18.40;45.30
30280;DHT22;17097;50.916;5.344;2023-03-01T11:35:02;18.40;44.80
30280;DHT22;17097;50.916;5.344;2023-03-01T11:37:35;18.50;44.80
30280;DHT22;17097;50.916;5.344;2023-03-01T11:40:25;18.30;45.20
30280;DHT22;17097;50.916;5.344;2023-03-01T11:43:55;18.30;45.20
30280;DHT22;17097;50.916;5.344;2023-03-01T12:00:06;16.00;48.50
30280;DHT22;17097;50.916;5.344;2023-03-01T12:46:41;13.80;54.00
30280;DHT22;17097;50.916;5.344;2023-03-01T12:49:17;13.80;54.00
30280;DHT22;17097;50.916;5.344;2023-03-01T12:52:00;13.90;53.70
30280;DHT22;17097;50.916;5.344;2023-03-01T12:54:31;13.90;52.80
30280;DHT22;17097;50.916;5.344;2023-03-01T12:57:09;13.70;52.10
30280;DHT22;17097;50.916;5.344;2023-03-01T13:02:23;13.50;52.90
30280;DHT22;17097;50.916;5.344;2023-03-01T13:05:08;13.40;54.10
30280;DHT22;17097;50.916;5.344;2023-03-01T13:10:25;13.70;53.90
30280;DHT22;17097;50.916;5.344;2023-03-01T13:13:08;13.80;55.80
30280;DHT22;17097;50.916;5.344;2023-03-01T13:15:37;14.10;55.70
30280;DHT22;17097;50.916;5.344;2023-03-01T13:20:57;14.10;53.90
30280;DHT22;17097;50.916;5.344;2023-03-01T13:23:32;14.20;53.60
30280;DHT22;17097;50.916;5.344;2023-03-01T13:28:38;14.30;54.40
30280;DHT22;17097;50.916;5.344;2023-03-01T13:31:08;14.50;54.30
30280;DHT22;17097;50.916;5.344;2023-03-01T13:36:08;14.00;53.30
30280;DHT22;17097;50.916;5.344;2023-03-01T13:38:46;13.70;53.70
30280;DHT22;17097;50.916;5.344;2023-03-01T13:41:47;13.50;53.90
30280;DHT22;17097;50.916;5.344;2023-03-01T13:46:59;13.40;55.10
30280;DHT22;17097;50.916;5.344;2023-03-01T13:49:33;13.20;55.10
30280;DHT22;17097;50.916;5.344;2023-03-01T13:52:02;12.80;56.30
30280;DHT22;17097;50.916;5.344;2023-03-01T13:54:31;12.40;57.30
30280;DHT22;17097;50.916;5.344;2023-03-01T13:57:00;12.00;58.50
30280;DHT22;17097;50.916;5.344;2023-03-01T13:59:27;12.10;58.90
30280;DHT22;17097;50.916;5.344;2023-03-01T14:01:59;12.10;59.50
30280;DHT22;17097;50.916;5.344;2023-03-01T14:07:19;12.30;59.80
30280;DHT22;17097;50.916;5.344;2023-03-01T14:09:48;12.30;59.70
30280;DHT22;17097;50.916;5.344;2023-03-01T14:12:50;12.30;58.80
30280;DHT22;17097;50.916;5.344;2023-03-01T14:20:23;12.70;58.20
30280;DHT22;17097;50.916;5.344;2023-03-01T14:22:52;12.50;57.60
30280;DHT22;17097;50.916;5.344;2023-03-01T14:25:21;12.50;57.20
30280;DHT22;17097;50.916;5.344;2023-03-01T14:28:26;12.50;58.00
30280;DHT22;17097;50.916;5.344;2023-03-01T14:30:57;12.40;57.80
30280;DHT22;17097;50.916;5.344;2023-03-01T14:33:30;12.50;57.00
30280;DHT22;17097;50.916;5.344;2023-03-01T14:36:12;12.50;56.00
30280;DHT22;17097;50.916;5.344;2023-03-01T14:38:45;12.30;56.30
30280;DHT22;17097;50.916;5.344;2023-03-01T14:41:15;12.30;56.90
30280;DHT22;17097;50.916;5.344;2023-03-01T14:43:53;12.30;56.20
30280;DHT22;17097;50.916;5.344;2023-03-01T14:46:30;12.30;57.60
30280;DHT22;17097;50.916;5.344;2023-03-01T14:49:02;12.30;57.60
30280;DHT22;17097;50.916;5.344;2023-03-01T14:51:28;12.40;57.50
30280;DHT22;17097;50.916;5.344;2023-03-01T14:53:58;12.40;57.30
30280;DHT22;17097;50.916;5.344;2023-03-01T14:56:23;12.40;57.90
30280;DHT22;17097;50.916;5.344;2023-03-01T14:58:53;12.40;56.50
30280;DHT22;17097;50.916;5.344;2023-03-01T15:01:23;12.30;56.80
30280;DHT22;17097;50.916;5.344;2023-03-01T15:03:49;12.20;56.40
30280;DHT22;17097;50.916;5.344;2023-03-01T15:06:18;12.10;56.50
30280;DHT22;17097;50.916;5.344;2023-03-01T15:08:51;12.00;57.00
30280;DHT22;17097;50.916;5.344;2023-03-01T15:11:44;11.90;57.70
30280;DHT22;17097;50.916;5.344;2023-03-01T15:14:40;12.00;58.10
30280;DHT22;17097;50.916;5.344;2023-03-01T15:17:37;11.90;58.90
30280;DHT22;17097;50.916;5.344;2023-03-01T15:20:06;11.90;60.00
30280;DHT22;17097;50.916;5.344;2023-03-01T15:22:35;11.90;60.40
30280;DHT22;17097;50.916;5.344;2023-03-01T15:25:01;11.90;61.80
30280;DHT22;17097;50.916;5.344;2023-03-01T15:27:27;11.80;61.60
30280;DHT22;17097;50.916;5.344;2023-03-01T15:29:55;11.70;61.50
30280;DHT22;17097;50.916;5.344;2023-03-01T15:32:35;11.90;61.90
30280;DHT22;17097;50.916;5.344;2023-03-01T15:35:35;11.80;61.90
30280;DHT22;17097;50.916;5.344;2023-03-01T15:38:22;11.70;60.70
30280;DHT22;17097;50.916;5.344;2023-03-01T15:40:51;11.70;61.20
30280;DHT22;17097;50.916;5.344;2023-03-01T15:46:03;11.70;63.90
30280;DHT22;17097;50.916;5.344;2023-03-01T15:48:30;11.60;61.90
30280;DHT22;17097;50.916;5.344;2023-03-01T15:50:59;11.50;61.10
30280;DHT22;17097;50.916;5.344;2023-03-01T15:53:27;11.50;62.10
30280;DHT22;17097;50.916;5.344;2023-03-01T15:55:53;11.40;60.80
30280;DHT22;17097;50.916;5.344;2023-03-01T15:58:23;11.40;60.10
30280;DHT22;17097;50.916;5.344;2023-03-01T16:00:50;11.20;60.10
30280;DHT22;17097;50.916;5.344;2023-03-01T16:03:22;11.00;61.00
30280;DHT22;17097;50.916;5.344;2023-03-01T16:05:49;10.90;63.10
30280;DHT22;17097;50.916;5.344;2023-03-01T16:08:16;10.70;61.50
30280;DHT22;17097;50.916;5.344;2023-03-01T16:10:45;10.60;62.80
30280;DHT22;17097;50.916;5.344;2023-03-01T16:13:12;10.50;63.40
30280;DHT22;17097;50.916;5.344;2023-03-01T16:15:38;10.20;63.30
30280;DHT22;17097;50.916;5.344;2023-03-01T16:18:05;10.10;65.10
30280;DHT22;17097;50.916;5.344;2023-03-01T16:20:32;10.00;66.00
30280;DHT22;17097;50.916;5.344;2023-03-01T16:22:59;10.00;66.00
30280;DHT22;17097;50.916;5.344;2023-03-01T16:25:25;9.90;66.60
30280;DHT22;17097;50.916;5.344;2023-03-01T16:27:51;9.90;67.00
30280;DHT22;17097;50.916;5.344;2023-03-01T16:30:20;9.80;67.70
30280;DHT22;17097;50.916;5.344;2023-03-01T16:32:48;9.70;66.90
30280;DHT22;17097;50.916;5.344;2023-03-01T16:35:16;9.70;67.00
30280;DHT22;17097;50.916;5.344;2023-03-01T16:37:43;9.50;68.10
30280;DHT22;17097;50.916;5.344;2023-03-01T16:40:28;9.50;69.00
30280;DHT22;17097;50.916;5.344;2023-03-01T16:42:58;9.40;69.60
30280;DHT22;17097;50.916;5.344;2023-03-01T16:45:32;9.40;70.20
30280;DHT22;17097;50.916;5.344;2023-03-01T16:47:58;9.40;70.00
30280;DHT22;17097;50.916;5.344;2023-03-01T16:50:24;9.30;70.70
30280;DHT22;17097;50.916;5.344;2023-03-01T16:52:51;9.30;71.70
30280;DHT22;17097;50.916;5.344;2023-03-01T16:55:17;9.10;72.30
30280;DHT22;17097;50.916;5.344;2023-03-01T16:57:45;9.10;72.60
30280;DHT22;17097;50.916;5.344;2023-03-01T17:00:12;8.80;73.60
30280;DHT22;17097;50.916;5.344;2023-03-01T17:02:39;8.80;74.10
30280;DHT22;17097;50.916;5.344;2023-03-01T17:05:06;8.70;75.20
30280;DHT22;17097;50.916;5.344;2023-03-01T17:07:35;8.80;74.70
30280;DHT22;17097;50.916;5.344;2023-03-01T17:10:02;8.80;74.70
30280;DHT22;17097;50.916;5.344;2023-03-01T17:12:28;8.80;75.50
30280;DHT22;17097;50.916;5.344;2023-03-01T17:14:54;8.70;75.30
30280;DHT22;17097;50.916;5.344;2023-03-01T17:17:20;8.70;75.80
30280;DHT22;17097;50.916;5.344;2023-03-01T17:19:46;8.40;76.20
30280;DHT22;17097;50.916;5.344;2023-03-01T17:22:12;8.30;77.50
30280;DHT22;17097;50.916;5.344;2023-03-01T17:24:42;8.20;78.30
30280;DHT22;17097;50.916;5.344;2023-03-01T17:27:09;8.20;79.10
30280;DHT22;17097;50.916;5.344;2023-03-01T17:29:36;8.20;78.60
30280;DHT22;17097;50.916;5.344;2023-03-01T17:32:03;8.20;79.00
30280;DHT22;17097;50.916;5.344;2023-03-01T17:34:30;8.20;79.50
30280;DHT22;17097;50.916;5.344;2023-03-01T17:36:57;8.20;79.20
30280;DHT22;17097;50.916;5.344;2023-03-01T17:39:22;8.20;79.20
30280;DHT22;17097;50.916;5.344;2023-03-01T17:41:55;8.10;79.70
30280;DHT22;17097;50.916;5.344;2023-03-01T17:44:22;8.00;80.50
30280;DHT22;17097;50.916;5.344;2023-03-01T17:46:50;8.00;80.60
30280;DHT22;17097;50.916;5.344;2023-03-01T17:49:15;7.90;81.10
30280;DHT22;17097;50.916;5.344;2023-03-01T17:51:42;7.90;81.60